createdAt,value
2019-03-06T00:02:29.544Z,99.90
2019-03-06T00:07:33.436Z,99.90
2019-03-06T00:12:37.223Z,99.90
2019-03-06T00:17:41.132Z,99.90
2019-03-06T00:22:44.894Z,99.90
2019-03-06T00:27:48.614Z,99.90
2019-03-06T00:32:52.582Z,99.90
2019-03-06T00:37:56.285Z,99.90
2019-03-06T00:42:59.974Z,99.90
2019-03-06T00:48:03.782Z,99.90
2019-03-06T00:53:07.531Z,99.90
2019-03-06T00:58:11.270Z,99.90
2019-03-06T01:03:14.976Z,99.90
2019-03-06T01:08:18.982Z,99.90
2019-03-06T01:13:22.737Z,99.90
2019-03-06T01:18:26.537Z,99.90
2019-03-06T01:23:30.512Z,99.90
2019-03-06T01:28:34.185Z,99.90
2019-03-06T01:33:56.186Z,99.90
2019-03-06T01:39:10.616Z,99.90
2019-03-06T01:44:20.942Z,99.90
2019-03-06T01:49:24.948Z,99.90
2019-03-06T01:54:28.631Z,99.90
2019-03-06T01:59:32.376Z,99.90
2019-03-06T02:04:36.184Z,99.90
2019-03-06T02:09:40.162Z,99.90
2019-03-06T02:14:43.865Z,99.90
2019-03-06T02:19:47.703Z,99.90
2019-03-06T02:24:51.506Z,99.90
2019-03-06T02:29:55.187Z,99.90
2019-03-06T02:34:59.154Z,99.90
2019-03-06T02:40:02.838Z,99.90
2019-03-06T02:45:08.006Z,99.90
2019-03-06T02:50:12.821Z,99.90
2019-03-06T02:55:17.499Z,99.90
2019-03-06T03:00:46.650Z,99.90
2019-03-06T03:06:02.955Z,99.90
2019-03-06T03:11:07.121Z,99.90
2019-03-06T03:16:11.002Z,99.90
2019-03-06T03:21:14.980Z,99.90
2019-03-06T03:26:18.756Z,99.90
2019-03-06T03:31:23.718Z,99.90
2019-03-06T03:36:27.556Z,99.90
2019-03-06T03:41:32.589Z,99.80
2019-03-06T03:46:36.741Z,99.80
2019-03-06T03:51:40.444Z,99.80
2019-03-06T03:56:44.366Z,99.90
2019-03-06T04:01:48.165Z,99.80
2019-03-06T04:06:52.225Z,99.80
2019-03-06T04:11:56.093Z,99.90
2019-03-06T04:17:00.141Z,99.90
2019-03-06T04:22:03.947Z,99.90
2019-03-06T04:27:07.774Z,99.90
2019-03-06T04:32:11.566Z,99.90
2019-03-06T04:37:16.932Z,99.90
2019-03-06T04:42:20.696Z,99.90
2019-03-06T04:47:26.034Z,99.90
2019-03-06T04:52:30.106Z,99.90
2019-03-06T04:57:33.982Z,99.90
2019-03-06T05:02:37.693Z,99.90
2019-03-06T05:07:41.742Z,99.90
2019-03-06T05:12:45.779Z,99.90
2019-03-06T05:18:04.735Z,99.90
2019-03-06T05:23:08.531Z,99.90
2019-03-06T05:28:12.418Z,99.90
2019-03-06T05:33:16.679Z,99.90
2019-03-06T05:38:31.027Z,99.90
2019-03-06T05:43:34.718Z,99.90
2019-03-06T05:48:38.549Z,99.90
2019-03-06T05:53:42.379Z,99.90
2019-03-06T05:58:46.071Z,99.90
2019-03-06T06:03:49.867Z,99.90
2019-03-06T06:08:54.012Z,99.90
2019-03-06T06:13:57.714Z,99.90
2019-03-06T06:19:01.850Z,99.90
2019-03-06T06:24:10.829Z,99.90
2019-03-06T06:29:14.591Z,99.60
2019-03-06T06:34:18.287Z,97.50
2019-03-06T06:39:22.018Z,95.50
2019-03-06T06:44:25.800Z,94.60
2019-03-06T06:49:29.486Z,94.10
2019-03-06T06:55:05.511Z,92.90
2019-03-06T07:00:52.192Z,92.20
2019-03-06T07:06:24.185Z,92.30
2019-03-06T07:11:50.063Z,93.90
2019-03-06T07:17:15.823Z,95.10
2019-03-06T07:22:50.864Z,95.10
2019-03-06T07:28:12.765Z,95.20
2019-03-06T07:33:35.642Z,95.20
2019-03-06T07:38:39.370Z,95.10
2019-03-06T07:44:01.151Z,94.90
2019-03-06T07:49:21.510Z,94.30
2019-03-06T07:54:43.568Z,94.40
2019-03-06T07:59:47.616Z,94.10
2019-03-06T08:04:52.603Z,94.00
2019-03-06T08:09:56.408Z,93.70
2019-03-06T08:15:26.915Z,93.20
2019-03-06T08:20:44.958Z,92.50
2019-03-06T08:25:49.752Z,92.50
2019-03-06T08:31:02.223Z,92.00
2019-03-06T08:36:05.934Z,91.40
2019-03-06T08:41:09.671Z,91.20
2019-03-06T08:46:35.899Z,90.60
2019-03-06T08:51:49.234Z,89.70
2019-03-06T08:56:58.599Z,90.40
2019-03-06T09:02:17.887Z,90.30
2019-03-06T09:07:39.637Z,89.20
2019-03-06T09:13:08.843Z,88.80
2019-03-06T09:18:40.243Z,86.90
2019-03-06T09:24:00.738Z,88.40
2019-03-06T09:29:18.001Z,89.50
2019-03-06T09:34:28.323Z,87.30
2019-03-06T09:39:52.954Z,86.60
2019-03-06T09:45:06.833Z,87.90
2019-03-06T09:50:22.553Z,85.40
2019-03-06T10:01:23.462Z,82.30
2019-03-06T10:22:21.882Z,78.90
2019-03-06T10:42:35.846Z,78.70
2019-03-06T10:57:47.533Z,80.40
2019-03-06T11:12:59.671Z,78.50
2019-03-06T11:23:07.918Z,75.70
2019-03-06T11:28:12.463Z,73.30
2019-03-06T11:38:21.057Z,73.60
2019-03-06T12:03:40.823Z,63.30
2019-03-06T12:08:45.781Z,61.00
2019-03-06T12:23:57.241Z,59.20
2019-03-06T12:29:02.831Z,56.30
2019-03-06T12:34:06.862Z,56.70
2019-03-06T12:39:13.971Z,56.80
2019-03-06T12:49:22.182Z,60.20
2019-03-06T12:54:26.250Z,57.40
2019-03-06T12:59:31.488Z,58.10
2019-03-06T13:04:35.715Z,56.10
2019-03-06T13:24:50.870Z,56.00
2019-03-06T13:35:02.422Z,55.40
2019-03-06T13:45:10.223Z,54.50
2019-03-06T14:25:40.326Z,51.20
2019-03-06T14:30:45.057Z,51.00
2019-03-06T14:35:49.441Z,51.80
2019-03-06T14:45:57.528Z,52.60
2019-03-06T14:56:07.562Z,54.20
2019-03-06T15:01:11.560Z,54.10
2019-03-06T15:11:20.231Z,54.70
2019-03-06T15:31:38.124Z,57.10
2019-03-06T15:41:45.224Z,59.00
2019-03-06T15:56:56.027Z,60.10
2019-03-06T16:02:00.420Z,61.10
2019-03-06T16:32:28.261Z,69.40
2019-03-06T16:42:36.364Z,71.00
2019-03-06T16:52:45.387Z,72.30
2019-03-06T17:33:19.598Z,75.10
2019-03-06T18:24:14.910Z,80.70
2019-03-06T18:29:19.332Z,81.10
2019-03-06T19:10:06.765Z,82.60
2019-03-06T20:31:11.620Z,80.70
2019-03-06T20:56:30.587Z,79.70
2019-03-06T21:01:34.533Z,79.40
2019-03-06T21:42:03.674Z,78.60
2019-03-06T21:47:07.990Z,77.80
2019-03-06T21:52:11.853Z,77.60
2019-03-06T22:17:29.803Z,77.60
2019-03-06T22:22:33.541Z,78.10
2019-03-06T22:37:44.845Z,82.30
2019-03-06T22:42:49.327Z,81.50
2019-03-06T22:47:53.017Z,80.80
2019-03-06T23:03:05.011Z,81.60
2019-03-06T23:13:13.272Z,83.20
2019-03-06T23:18:17.522Z,83.60
2019-03-06T23:38:32.031Z,85.20
2019-03-06T23:43:36.025Z,85.00
2019-03-06T23:48:40.072Z,85.30
2019-03-06T23:53:54.118Z,85.50
